Minden, Louisiana
Current Conditions -  °F | °C
As of 12:15 AM on Thursday 25 Dec 2014 (Local Time) from KMNE Reporting Station
Clear Clear  
Wind Chill: 32°   Ceiling: Unl
Heat Index: 32°   Visibility: 10mi
Dew Point: 30°   Wind: 3mph
Humidity: 93%   Direction: 110°ESE
Pressure: 30.08"   Gusts: NA
Location:  32.62°N, 93.29°W
Report Text: KMNE 250615Z AUTO 11003KT 10SM CLR 00/M01 A3008 RMK AO2
Loading
Personal Weather Stations






























Interactive Weather Map New forecast layout! Learn more

10-Day Weather Forecast

Advertisements
Track Severe Weather on mobile